AirNav   ProFlight Series 2 Aviation Headset
 
 859 users online  

10MI Ascension St Mary's Hospital Heliport
Saginaw, Michigan, USA

GOING TO SAGINAW?


FAA INFORMATION EFFECTIVE 18 JUNE 2020

Location

FAA Identifier: 10MI
Lat/Long: 43-25-32.8500N 083-56-22.4600W
43-25.547500N 083-56.374333W
43.4257917,-83.9395722
(estimated)
Elevation: 600 ft. / 183 m (estimated)
Variation: 06W (2000)
From city: 1 mile S of SAGINAW, MI
Time zone: UTC -4 (UTC -5 during Standard Time)
Zip code: 48601

Heliport Operations

Heliport use: Private use, MEDICAL USE.
Activation date: 10/1986
Control tower: no
ARTCC: CLEVELAND CENTER
FSS: LANSING FLIGHT SERVICE STATION
NOTAMs facility: FDC (NOTAM-D service not available)
Attendance: CONTINUOUS
Wind indicator: lighted
Segmented circle: no

Heliport Communications

WX AWOS-3 at HYX (3 nm E): 118.325 (989-752-3408)
WX ASOS at MBS (9 nm NW): 118.325 (989-695-2488)
WX AWOS-3 at IKW (20 nm NW): 119.525 (989-835-5841)

Nearby radio navigation aids

VOR radial/distance  VOR name  Freq  Var
MBSr140/8.7SAGINAW VOR/DME112.9003W
FNTr349/28.8FLINT VORTAC116.9006W
MOPr114/36.7MOUNT PLEASANT VOR/DME110.6005W

 
NDB name  Hdg/Dist  Freq  Var  ID
OLSTE109/10.725707WMB -- -...

Heliport Services

Runway Information

Helipad H1

Dimensions: 100 x 100 ft. / 30 x 30 m
Surface: concrete
Runway edge lights: PERI
Latitude: 43-25.547500N
Longitude: 083-56.374333W
Elevation: 600.0 ft.
Traffic pattern: leftleft

Heliport Ownership and Management from official FAA records

Ownership: Privately-owned
Owner: ASCENSION ST MARY'S HOSPITAL
800 S WASHINGTON AVE
SAGINAW, MI 48601-2551
Phone 989-907-8000
Manager: DAVID REVARD
800 S WASHINGTON AVE
SAGINAW, MI 48601-2551
Phone 989-907-8129

Heliport Operational Statistics

Aircraft based on the field: 2
Multi engine airplanes: 1
Helicopters: 1
    

Additional Remarks

A52-H1 PLINES MKD & LGTD 50 FT W & 120 FT N.
+5 FT PERIMETER FENCE 15 FT FROM HELIPORT.
FOR CD CTC GREAT LAKES APCH AT 269-459-3345, WHEN APCH CLSD CTC CLEVELAND ARTCC AT 440-774-0224/0490.

Instrument Procedures

There are no published instrument procedures at 10MI.

Some nearby airports with instrument procedures:

KHYX - Saginaw County H W Browne Airport (3 nm E)
3CM - James Clements Municipal Airport (8 nm N)
KMBS - MBS International Airport (9 nm NW)
KIKW - Jack Barstow Airport (20 nm NW)
KCFS - Tuscola Area Airport (22 nm E)
 
Loc | Ops | Rwys | IFR | FBO | Links
Com | Nav | Svcs | Stats | Notes
Area around 10MI (Ascension St Mary's Hospital Heliport)
 
Road maps at: MapQuest Bing Google
 
Aerial photo
No photo
 
Sectional chart

 
Airport distance calculator
Flying to Ascension St Mary's Hospital Heliport? Find the distance to fly.

From to 10MI

Sunrise and sunset
Times for 14-Jul-2020
 Local
(UTC-4)
 Zulu
(UTC)
Morning civil twilight05:3509:35
Sunrise06:1010:10
Sunset21:1401:14
Evening civil twilight21:4801:48

Current date and time
Zulu (UTC)  15-Jul-2020 03:06:29
Local (UTC-4)  14-Jul-2020 23:06:29
 
METAR
KHYX 
3nm E 
150255Z AUTO 11003KT 10SM CLR 21/17 A3005 RMK AO2
KMBS 
9nm NW 
150253Z AUTO 00000KT 10SM CLR 24/13 A3006 RMK AO2 SLP174 T02440128 53003
KIKW 
20nm NW 
150256Z AUTO 11006KT 10SM CLR 22/16 A3004 RMK AO2 T02170163
TAF
KMBS 
9nm NW 
141727Z 1418/1518 19006KT P6SM FEW050 SCT250 FM150000 18004KT P6SM SCT250 FM151400 19007KT P6SM SCT250
NOTAMs
Click for the latest NOTAMs
NOTAMs are issued by the DoD/FAA and will open in a separate window not controlled by AirNav.

 

 
 

Would you like to see your business listed on this page?

 If your business provides an interesting product or service to pilots, flight crews, aircraft, or users of the Ascension St Mary's Hospital Heliport, you should consider listing it here.  To start the listing process, click on the button below
 
Add a business
 

Other Pages about Ascension St Mary's Hospital Heliport

Update a link
 
Copyright © AirNav, LLC. All rights reserved. Privacy Policy  Contact